Airport ID:KVUF
Update Time (UTC):23/05/2024 03:02
Wind Speed (Knots):4
Wind Direction (Magnetic):40
Temperature (°C):20
Dew Point (°C):16
Humidity (%):80
Altimeter (inHg):29.87
Density Altitude (Feet):3000
Visibility:10+
Clouds (Hundreds of feet):CLR
Present Weather:
METAR:METAR KVUF 230300Z AUTO 05003KT 10SM CLR 20/16 A2987 RMK A01

The data displayed is for advisory purposes only and is not to be used for flight planning or operations.